createdAt,value
2018-07-31T00:00:01.219Z,92.300003
2018-07-31T00:05:01.610Z,94
2018-07-31T00:10:03.995Z,96.599998
2018-07-31T00:15:06.312Z,96.199997
2018-07-31T00:20:08.460Z,94.400002
2018-07-31T00:25:10.710Z,93.099998
2018-07-31T00:30:13.090Z,92.900002
2018-07-31T00:35:15.352Z,93.400002
2018-07-31T00:40:17.773Z,92.699997
2018-07-31T00:45:19.945Z,93.800003
2018-07-31T00:50:22.240Z,95.099998
2018-07-31T00:55:24.545Z,98.400002
2018-07-31T01:00:26.880Z,96.400002
2018-07-31T01:05:29.224Z,95.300003
2018-07-31T01:10:31.479Z,94
2018-07-31T01:15:33.727Z,93.099998
2018-07-31T01:20:36.084Z,92.300003
2018-07-31T01:25:38.316Z,93.199997
2018-07-31T01:35:54.072Z,95
2018-07-31T01:40:56.265Z,95.599998
2018-07-31T01:45:58.768Z,96.800003
2018-07-31T01:51:00.845Z,99.900002
2018-07-31T01:56:03.236Z,99.900002
2018-07-31T02:01:05.476Z,99.900002
2018-07-31T02:06:07.854Z,99.900002
2018-07-31T02:11:10.065Z,99.900002
2018-07-31T02:16:12.432Z,99.900002
2018-07-31T02:21:14.637Z,99.900002
2018-07-31T02:26:17.157Z,99.900002
2018-07-31T02:31:19.342Z,99.699997
2018-07-31T02:36:21.509Z,98.5
2018-07-31T02:41:23.859Z,98.099998
2018-07-31T02:46:26.148Z,98.099998
2018-07-31T02:51:28.466Z,98.699997
2018-07-31T02:56:30.825Z,99.900002
2018-07-31T03:01:33.047Z,99.900002
2018-07-31T03:06:35.635Z,99.900002
2018-07-31T03:11:37.716Z,99.900002
2018-07-31T03:16:39.912Z,99.900002
2018-07-31T03:21:42.227Z,99.900002
2018-07-31T03:26:44.434Z,99.900002
2018-07-31T03:31:46.859Z,99.900002
2018-07-31T03:36:48.998Z,99.900002
2018-07-31T03:41:51.382Z,99.900002
2018-07-31T03:46:53.710Z,99.900002
2018-07-31T03:51:56.110Z,99.699997
2018-07-31T03:56:58.400Z,99.5
2018-07-31T04:02:00.700Z,98.199997
2018-07-31T04:07:02.934Z,97.099998
2018-07-31T04:12:05.105Z,96.900002
2018-07-31T04:17:07.603Z,97
2018-07-31T04:22:09.678Z,97.400002
2018-07-31T04:27:12.258Z,97.599998
2018-07-31T04:32:14.267Z,97.300003
2018-07-31T04:37:16.590Z,96.699997
2018-07-31T04:42:18.969Z,95.699997
2018-07-31T04:47:21.267Z,94.5
2018-07-31T04:52:23.460Z,94.099998
2018-07-31T04:57:25.905Z,94.800003
2018-07-31T05:02:28.103Z,94.099998
2018-07-31T05:07:30.340Z,93.699997
2018-07-31T05:12:32.691Z,93.699997
2018-07-31T05:17:34.949Z,93.099998
2018-07-31T05:22:37.267Z,92.099998
2018-07-31T05:27:39.646Z,91.5
2018-07-31T05:32:41.902Z,90.199997
2018-07-31T05:37:44.285Z,88.400002
2018-07-31T05:42:46.370Z,87.5
2018-07-31T05:47:48.728Z,86
2018-07-31T05:52:51.030Z,85.099998
2018-07-31T05:57:53.359Z,84.800003
2018-07-31T06:02:55.550Z,83.900002
2018-07-31T06:07:57.864Z,82.400002
2018-07-31T06:13:00.354Z,81.599998
2018-07-31T06:18:02.519Z,81.300003
2018-07-31T06:23:04.958Z,81.699997
2018-07-31T06:28:07.194Z,81.5
2018-07-31T06:38:24.459Z,79.400002
2018-07-31T06:43:26.778Z,77.699997
2018-07-31T06:53:52.046Z,75.900002
2018-07-31T06:58:54.286Z,74.800003
2018-07-31T07:03:56.543Z,74
2018-07-31T07:08:58.937Z,73.599998
2018-07-31T07:14:01.188Z,72.5
2018-07-31T07:19:03.534Z,73.099998
2018-07-31T07:24:05.861Z,72.5
2018-07-31T07:29:08.154Z,73.099998
2018-07-31T07:34:10.268Z,71
2018-07-31T07:39:12.690Z,65.099998
2018-07-31T07:44:14.963Z,62.599998
2018-07-31T07:49:17.260Z,59.400002
2018-07-31T07:54:19.697Z,62.200001
2018-07-31T07:59:21.836Z,62.099998
2018-07-31T08:04:24.152Z,59
2018-07-31T08:09:26.407Z,55.700001
2018-07-31T08:14:28.769Z,54.200001
2018-07-31T08:19:30.983Z,54.599998
2018-07-31T08:24:33.267Z,54.599998
2018-07-31T08:29:35.528Z,55
2018-07-31T08:34:37.821Z,53.599998
2018-07-31T08:39:40.329Z,49.900002
2018-07-31T08:44:42.451Z,48.599998
2018-07-31T08:49:44.907Z,47.200001
2018-07-31T08:54:47.131Z,44.599998
2018-07-31T08:59:49.425Z,44.599998
2018-07-31T09:04:51.640Z,44.200001
2018-07-31T09:09:53.946Z,42
2018-07-31T09:14:56.364Z,41.799999
2018-07-31T09:19:58.533Z,39.799999
2018-07-31T09:25:00.956Z,39.400002
2018-07-31T09:30:03.191Z,38.700001
2018-07-31T09:35:05.346Z,36.200001
2018-07-31T09:40:07.666Z,37.299999
2018-07-31T09:45:10.090Z,36.900002
2018-07-31T09:50:12.198Z,37.200001
2018-07-31T09:55:14.534Z,36.299999
2018-07-31T10:00:16.883Z,33.299999
2018-07-31T10:05:19.292Z,33.599998
2018-07-31T10:10:21.501Z,36.5
2018-07-31T10:15:23.785Z,34.799999
2018-07-31T10:20:26.085Z,34.400002
2018-07-31T10:25:28.393Z,34.200001
2018-07-31T10:30:30.642Z,35.099998
2018-07-31T10:35:32.989Z,33.400002
2018-07-31T10:40:35.253Z,33.299999
2018-07-31T10:45:37.580Z,32.799999
2018-07-31T10:50:39.914Z,33.700001
2018-07-31T10:55:42.160Z,32.599998
2018-07-31T11:00:44.389Z,31.9
2018-07-31T11:05:46.751Z,34.5
2018-07-31T11:10:49.084Z,33.400002
2018-07-31T11:15:51.372Z,33
2018-07-31T11:20:53.671Z,32
2018-07-31T11:25:55.882Z,28.799999
2018-07-31T11:30:58.241Z,29.6
2018-07-31T11:36:00.446Z,30.5
2018-07-31T11:41:02.874Z,32.5
2018-07-31T11:46:05.004Z,32.599998
2018-07-31T11:51:07.346Z,32.700001
2018-07-31T11:56:09.692Z,32.900002
2018-07-31T12:01:12.025Z,31.9
2018-07-31T12:06:14.330Z,33.299999
2018-07-31T12:11:16.898Z,34.400002
2018-07-31T12:16:18.903Z,32.099998
2018-07-31T12:21:21.128Z,33.900002
2018-07-31T12:26:23.418Z,34.799999
2018-07-31T12:31:25.837Z,36.400002
2018-07-31T12:36:27.936Z,35.200001
2018-07-31T12:41:30.322Z,34.799999
2018-07-31T12:46:32.556Z,34.700001
2018-07-31T12:51:34.846Z,35.299999
2018-07-31T12:56:37.284Z,37.900002
2018-07-31T13:01:40.067Z,36.5
2018-07-31T13:06:41.855Z,38
2018-07-31T13:11:44.082Z,36.5
2018-07-31T13:16:46.348Z,35.900002
2018-07-31T13:21:48.670Z,38.099998
2018-07-31T13:26:50.962Z,36.200001
2018-07-31T13:31:53.238Z,35
2018-07-31T13:36:55.468Z,36.099998
2018-07-31T13:41:57.874Z,36.299999
2018-07-31T13:47:00.135Z,34.400002
2018-07-31T13:52:02.353Z,30.4
2018-07-31T13:57:04.792Z,33.400002
2018-07-31T14:02:07.083Z,33.200001
2018-07-31T14:07:09.468Z,30.9
2018-07-31T14:12:11.747Z,29.299999
2018-07-31T14:17:13.864Z,30.1
2018-07-31T14:22:16.130Z,32.5
2018-07-31T14:27:18.602Z,31.799999
2018-07-31T14:32:20.789Z,29.799999
2018-07-31T14:37:23.009Z,28.5
2018-07-31T14:42:25.461Z,29.700001
2018-07-31T14:47:27.688Z,28.6
2018-07-31T14:52:29.972Z,29.6
2018-07-31T14:57:32.291Z,30.299999
2018-07-31T15:02:34.696Z,31.299999
2018-07-31T15:07:36.817Z,30.4
2018-07-31T15:12:39.122Z,29.4
2018-07-31T15:17:41.504Z,28.4
2018-07-31T15:22:43.692Z,28.200001
2018-07-31T15:27:45.992Z,27.5
2018-07-31T15:32:48.443Z,28.4
2018-07-31T15:37:50.593Z,30.700001
2018-07-31T15:42:52.983Z,28.1
2018-07-31T15:47:55.140Z,28.700001
2018-07-31T15:52:57.480Z,28.5
2018-07-31T15:57:59.812Z,29
2018-07-31T16:03:02.130Z,28.1
2018-07-31T16:08:04.456Z,29.1
2018-07-31T16:13:06.601Z,30
2018-07-31T16:18:08.957Z,32.099998
2018-07-31T16:23:11.312Z,33
2018-07-31T16:28:13.521Z,31
2018-07-31T16:33:15.852Z,31.6
2018-07-31T16:38:18.142Z,32
2018-07-31T16:43:20.449Z,33.099998
2018-07-31T16:48:22.762Z,33.200001
2018-07-31T16:53:24.954Z,33.599998
2018-07-31T16:58:27.335Z,33.599998
2018-07-31T17:03:29.601Z,34.099998
2018-07-31T17:08:31.893Z,36.5
2018-07-31T17:13:34.117Z,41.200001
2018-07-31T17:18:36.483Z,42
2018-07-31T17:23:38.729Z,44.700001
2018-07-31T17:28:41.195Z,46.799999
2018-07-31T17:33:43.265Z,47
2018-07-31T17:38:45.632Z,48
2018-07-31T17:43:48.044Z,48.900002
2018-07-31T17:48:50.280Z,49.299999
2018-07-31T17:53:52.602Z,48.200001
2018-07-31T17:58:55.881Z,48.700001
2018-07-31T18:03:57.038Z,48.799999
2018-07-31T18:08:59.365Z,50.599998
2018-07-31T18:14:01.701Z,52.200001
2018-07-31T18:19:04.141Z,53
2018-07-31T18:24:06.291Z,53.900002
2018-07-31T18:29:08.725Z,55.099998
2018-07-31T18:34:10.959Z,55.299999
2018-07-31T18:39:13.227Z,55.299999
2018-07-31T18:44:15.439Z,56
2018-07-31T18:49:18.167Z,55.299999
2018-07-31T18:54:20.269Z,55.900002
2018-07-31T18:59:22.362Z,56.200001
2018-07-31T19:04:24.660Z,57.299999
2018-07-31T19:09:26.982Z,57.799999
2018-07-31T19:14:29.217Z,58.200001
2018-07-31T19:19:31.509Z,59.599998
2018-07-31T19:24:33.924Z,59.700001
2018-07-31T19:29:36.149Z,60.400002
2018-07-31T19:34:38.448Z,60.799999
2018-07-31T19:39:40.772Z,61.799999
2018-07-31T19:44:43.114Z,62.700001
2018-07-31T19:49:45.424Z,63.700001
2018-07-31T19:54:47.619Z,64.800003
2018-07-31T19:59:52.795Z,65
2018-07-31T20:04:53.989Z,64.699997
2018-07-31T20:09:54.541Z,66
2018-07-31T20:14:56.792Z,67
2018-07-31T20:19:59.089Z,66.300003
2018-07-31T20:25:01.389Z,67.800003
2018-07-31T20:30:03.754Z,66.800003
2018-07-31T20:35:05.985Z,67.5
2018-07-31T20:40:08.329Z,67.5
2018-07-31T20:45:10.549Z,67.900002
2018-07-31T20:50:12.886Z,69
2018-07-31T20:55:15.116Z,68.800003
2018-07-31T21:00:17.468Z,68.900002
2018-07-31T21:05:19.793Z,68.900002
2018-07-31T21:10:23.477Z,69.300003
2018-07-31T21:15:24.291Z,68.900002
2018-07-31T21:20:26.550Z,68.800003
2018-07-31T21:25:28.953Z,69.5
2018-07-31T21:35:33.520Z,69.300003
2018-07-31T21:40:35.706Z,67.599998
2018-07-31T21:45:38.038Z,67.900002
2018-07-31T21:50:40.439Z,71.199997
2018-07-31T21:55:42.808Z,68.699997
2018-07-31T22:00:45.009Z,69.5
2018-07-31T22:05:47.358Z,69
2018-07-31T22:10:49.723Z,71.199997
2018-07-31T22:16:02.312Z,70.699997
2018-07-31T22:21:02.536Z,70.199997
2018-07-31T22:25:56.686Z,71.599998
2018-07-31T22:30:59.789Z,73.099998
2018-07-31T22:36:00.973Z,71.699997
2018-07-31T22:41:04.990Z,71.099998
2018-07-31T22:46:05.590Z,71.900002
2018-07-31T22:51:08.026Z,73.400002
2018-07-31T22:56:10.218Z,73
2018-07-31T23:01:12.617Z,74.099998
2018-07-31T23:06:14.976Z,74.699997
2018-07-31T23:11:17.042Z,74.199997
2018-07-31T23:21:21.690Z,74.300003
2018-07-31T23:26:23.962Z,75.599998
2018-07-31T23:31:26.184Z,76.400002
2018-07-31T23:36:29.782Z,77.5
2018-07-31T23:41:30.936Z,76.699997
2018-07-31T23:46:33.203Z,76.699997
2018-07-31T23:51:35.494Z,77.300003
2018-07-31T23:56:37.733Z,78.699997
